Time;durP1;ratioP1;P1;durP2;ratioP2;P2;SDS_P1;SDS_P2;PMS_P1;PMS_P2;Temp;Humidity;BMP_temperature;BMP_pressure;BME280_temperature;BME280_humidity;BME280_pressure;Samples;Min_cycle;Max_cycle;Signal;HPM_P1;HPM_P2
2021/05/19 00:00:17;;;;;;;9.13;6.43;;;8.20;99.90;;;;;;5069647;28;20048;-79
2021/05/19 00:02:42;;;;;;;8.55;6.65;;;8.20;99.90;;;;;;5090844;28;20067;-81
2021/05/19 00:05:09;;;;;;;7.97;6.38;;;8.10;99.90;;;;;;5093400;28;20055;-78
2021/05/19 00:07:35;;;;;;;8.10;6.72;;;8.10;99.90;;;;;;5078138;28;20040;-78
2021/05/19 00:10:01;;;;;;;10.88;6.55;;;8.10;99.90;;;;;;5079898;28;20032;-78
2021/05/19 00:12:26;;;;;;;11.25;6.28;;;8.00;99.90;;;;;;5087498;28;20101;-79
2021/05/19 00:14:52;;;;;;;11.27;6.70;;;8.00;99.90;;;;;;5083726;28;20050;-77
2021/05/19 00:17:18;;;;;;;7.88;6.35;;;7.90;99.90;;;;;;5082698;28;20115;-77
2021/05/19 00:19:44;;;;;;;8.40;6.38;;;7.90;99.90;;;;;;5084131;28;20040;-78
2021/05/19 00:22:09;;;;;;;7.53;6.00;;;7.90;99.90;;;;;;5068620;28;20447;-79
2021/05/19 00:24:35;;;;;;;8.75;6.20;;;7.80;99.90;;;;;;5069329;28;20042;-78
2021/05/19 00:27:01;;;;;;;7.55;5.65;;;7.80;99.90;;;;;;5070606;28;20048;-77
2021/05/19 00:29:26;;;;;;;7.57;5.15;;;7.70;99.90;;;;;;5081823;28;20054;-79
2021/05/19 00:31:52;;;;;;;8.50;5.40;;;7.70;99.90;;;;;;5085264;28;20058;-78
2021/05/19 00:34:18;;;;;;;6.50;5.60;;;7.70;99.90;;;;;;5082589;28;20029;-79
2021/05/19 00:36:44;;;;;;;8.80;6.10;;;7.60;99.90;;;;;;5074479;28;20037;-79
2021/05/19 00:39:11;;;;;;;7.53;6.25;;;7.60;99.90;;;;;;5067278;28;20044;-78
2021/05/19 00:41:40;;;;;;;15.32;8.63;;;7.70;99.90;;;;;;5087112;28;20040;-77
2021/05/19 00:44:07;;;;;;;10.18;7.60;;;7.60;99.90;;;;;;5066080;28;20047;-78
2021/05/19 00:46:34;;;;;;;10.00;7.50;;;7.60;99.90;;;;;;5084862;28;20040;-77
2021/05/19 00:49:01;;;;;;;9.70;7.60;;;7.60;99.90;;;;;;5083985;28;20074;-80
2021/05/19 00:51:27;;;;;;;10.35;7.32;;;7.50;99.90;;;;;;5065656;28;20048;-80
2021/05/19 00:53:55;;;;;;;12.35;7.30;;;7.50;99.90;;;;;;5070842;28;20032;-78
2021/05/19 00:56:25;;;;;;;13.48;7.28;;;7.50;99.90;;;;;;5072380;28;20036;-78
2021/05/19 00:58:55;;;;;;;11.30;7.88;;;7.50;99.90;;;;;;5088124;28;20040;-78
2021/05/19 01:01:21;;;;;;;9.38;7.22;;;7.40;99.90;;;;;;5068464;28;20048;-78
2021/05/19 01:03:48;;;;;;;10.48;6.97;;;7.50;99.90;;;;;;5091389;28;20047;-79
2021/05/19 01:06:22;;;;;;;10.75;7.22;;;7.40;99.90;;;;;;5063161;28;20040;-80
2021/05/19 01:11:32;;;;;;;11.90;7.50;;;7.40;99.90;;;;;;5082357;28;20119;-80
2021/05/19 01:13:58;;;;;;;9.68;6.85;;;7.40;99.90;;;;;;5068280;28;20111;-79
2021/05/19 01:16:25;;;;;;;10.93;6.88;;;7.30;99.90;;;;;;5050495;28;20139;-79
2021/05/19 01:18:51;;;;;;;8.45;6.82;;;7.30;99.90;;;;;;5090290;28;20046;-77
2021/05/19 01:21:18;;;;;;;9.95;7.45;;;7.20;99.90;;;;;;5071808;28;20048;-79
2021/05/19 01:23:44;;;;;;;14.63;8.10;;;7.30;99.90;;;;;;5087444;28;20043;-77
2021/05/19 01:26:13;;;;;;;9.63;7.70;;;7.30;99.90;;;;;;5085500;28;20036;-78
2021/05/19 01:28:40;;;;;;;15.27;7.40;;;7.20;99.90;;;;;;5081525;28;20143;-79
2021/05/19 01:31:08;;;;;;;11.65;7.13;;;7.20;99.90;;;;;;5081969;28;20079;-78
2021/05/19 01:33:34;;;;;;;8.05;6.88;;;7.20;99.90;;;;;;5074557;28;20502;-79
2021/05/19 01:36:01;;;;;;;12.25;7.53;;;7.10;99.90;;;;;;5067307;28;20052;-78
2021/05/19 01:38:26;;;;;;;11.88;7.43;;;7.10;99.90;;;;;;5082388;28;20097;-79
2021/05/19 01:40:52;;;;;;;9.38;7.10;;;7.10;99.90;;;;;;5068880;28;20106;-77
2021/05/19 01:43:18;;;;;;;10.40;7.13;;;7.00;99.90;;;;;;5065875;28;20045;-80
2021/05/19 01:45:44;;;;;;;8.48;6.88;;;7.00;99.90;;;;;;5065819;28;20039;-78
2021/05/19 01:48:16;;;;;;;10.82;6.82;;;6.90;99.90;;;;;;5089762;28;20400;-80
2021/05/19 01:50:42;;;;;;;11.15;7.13;;;6.80;99.90;;;;;;5094387;28;20044;-77
2021/05/19 01:53:11;;;;;;;8.38;7.22;;;6.80;99.90;;;;;;5094000;28;20115;-77
2021/05/19 01:55:37;;;;;;;11.80;7.22;;;6.80;99.90;;;;;;5089670;28;20039;-78
2021/05/19 01:58:04;;;;;;;12.15;7.43;;;6.70;99.90;;;;;;5096720;28;20066;-77
2021/05/19 02:00:30;;;;;;;9.95;6.95;;;6.60;99.90;;;;;;5100744;28;20074;-77
2021/05/19 02:03:04;;;;;;;8.55;6.65;;;6.70;99.90;;;;;;5074828;28;20036;-79
2021/05/19 02:05:32;;;;;;;10.88;6.70;;;6.60;99.90;;;;;;5066124;28;20052;-80
2021/05/19 02:07:58;;;;;;;8.85;6.57;;;6.60;99.90;;;;;;5073295;28;20036;-78
2021/05/19 02:10:25;;;;;;;11.73;6.82;;;6.60;99.90;;;;;;5068273;28;20530;-79
2021/05/19 02:12:52;;;;;;;9.32;6.40;;;6.60;99.90;;;;;;5079620;28;20036;-76
2021/05/19 02:15:19;;;;;;;9.88;6.47;;;6.50;99.90;;;;;;5083429;28;20581;-78
2021/05/19 02:17:46;;;;;;;11.73;7.35;;;6.60;99.90;;;;;;5088176;28;20036;-78
2021/05/19 02:20:18;;;;;;;8.57;7.65;;;6.60;99.90;;;;;;5061113;28;20056;-79
2021/05/19 02:22:44;;;;;;;12.85;7.80;;;6.60;99.90;;;;;;5083725;28;20369;-78
2021/05/19 02:25:11;;;;;;;10.93;8.00;;;6.70;99.90;;;;;;5071865;28;20031;-79
2021/05/19 02:27:37;;;;;;;11.82;8.85;;;6.70;99.90;;;;;;5078097;28;20044;-79
2021/05/19 02:30:05;;;;;;;11.63;8.45;;;6.80;99.90;;;;;;5085229;28;20541;-79
2021/05/19 02:32:31;;;;;;;11.35;9.18;;;6.80;99.90;;;;;;5085768;28;20035;-77
2021/05/19 02:34:57;;;;;;;11.10;8.70;;;6.90;99.90;;;;;;5076095;28;20514;-78
2021/05/19 02:37:23;;;;;;;13.88;9.43;;;7.00;99.90;;;;;;5070387;28;20044;-79
2021/05/19 02:39:50;;;;;;;14.50;10.13;;;7.00;99.90;;;;;;5065925;28;20105;-79
2021/05/19 02:42:16;;;;;;;11.70;9.65;;;7.10;99.90;;;;;;5090822;28;20077;-77
2021/05/19 02:44:42;;;;;;;16.48;10.52;;;7.10;99.90;;;;;;5070840;28;20046;-78
2021/05/19 02:47:08;;;;;;;17.95;11.25;;;7.20;99.90;;;;;;5076132;28;20043;-77
2021/05/19 02:49:33;;;;;;;18.52;11.02;;;7.30;99.90;;;;;;5088260;28;20112;-78
2021/05/19 02:51:59;;;;;;;15.25;10.55;;;7.40;99.90;;;;;;5086816;28;20052;-77
2021/05/19 02:54:26;;;;;;;16.48;11.40;;;7.50;99.90;;;;;;5076473;28;20094;-79
2021/05/19 02:56:51;;;;;;;18.48;11.35;;;7.50;99.90;;;;;;5081936;28;20391;-77
2021/05/19 02:59:17;;;;;;;23.33;11.88;;;7.50;99.90;;;;;;5079037;28;20047;-79
2021/05/19 03:01:44;;;;;;;15.90;11.00;;;7.60;99.90;;;;;;5082107;28;20036;-78
2021/05/19 03:04:10;;;;;;;18.42;10.85;;;7.60;99.90;;;;;;5087603;28;20059;-79
2021/05/19 03:06:36;;;;;;;16.70;11.20;;;7.60;99.90;;;;;;5078622;28;20566;-79
2021/05/19 03:09:04;;;;;;;18.33;11.52;;;7.70;99.90;;;;;;5070882;28;20051;-78
2021/05/19 03:11:30;;;;;;;15.27;10.20;;;7.70;99.90;;;;;;5064617;28;20052;-79
2021/05/19 03:13:58;;;;;;;16.02;11.63;;;7.70;99.90;;;;;;5067593;28;20059;-78
2021/05/19 03:16:26;;;;;;;15.73;11.27;;;7.80;99.90;;;;;;5091147;28;20091;-79
2021/05/19 03:18:52;;;;;;;20.60;11.48;;;7.80;99.90;;;;;;5069067;28;20040;-81
2021/05/19 03:21:18;;;;;;;18.25;11.90;;;7.90;99.90;;;;;;5086943;28;20368;-77
2021/05/19 03:23:44;;;;;;;18.17;12.07;;;7.90;99.90;;;;;;5067285;28;20037;-78
2021/05/19 03:26:10;;;;;;;17.27;11.10;;;7.90;99.90;;;;;;5069462;28;20036;-78
2021/05/19 03:28:36;;;;;;;18.17;11.73;;;7.90;99.90;;;;;;5069771;28;20040;-78
2021/05/19 03:31:03;;;;;;;18.92;11.68;;;8.00;99.90;;;;;;5072591;28;20036;-79
2021/05/19 03:33:30;;;;;;;16.98;11.65;;;8.00;99.90;;;;;;5080943;28;20043;-77
2021/05/19 03:35:56;;;;;;;14.80;10.60;;;8.00;99.90;;;;;;5051556;28;20079;-80
2021/05/19 03:38:22;;;;;;;16.90;11.50;;;8.00;99.90;;;;;;5065893;28;20043;-80
2021/05/19 03:40:49;;;;;;;15.13;10.82;;;8.10;99.90;;;;;;5067683;28;20032;-76
2021/05/19 03:43:15;;;;;;;18.02;11.32;;;8.00;99.90;;;;;;5063526;28;20127;-76
2021/05/19 03:45:41;;;;;;;17.10;11.57;;;8.00;99.90;;;;;;5070247;28;20056;-79
2021/05/19 03:48:08;;;;;;;17.83;11.50;;;8.00;99.90;;;;;;5055924;28;20082;-77
2021/05/19 03:50:36;;;;;;;17.45;11.75;;;8.00;99.90;;;;;;5090991;28;20043;-78
2021/05/19 03:53:03;;;;;;;14.27;10.50;;;7.90;99.90;;;;;;5068862;28;20501;-79
2021/05/19 03:55:31;;;;;;;15.85;10.70;;;7.90;99.90;;;;;;5084509;28;20046;-78
2021/05/19 03:57:57;;;;;;;20.48;11.13;;;7.90;99.90;;;;;;5071527;28;20039;-79
2021/05/19 04:00:26;;;;;;;15.10;10.77;;;7.80;99.90;;;;;;5086544;28;20487;-77
2021/05/19 04:02:52;;;;;;;14.23;9.75;;;7.80;99.90;;;;;;5066734;28;20395;-77
2021/05/19 04:05:19;;;;;;;16.10;9.82;;;7.80;99.90;;;;;;5065306;28;20127;-79
2021/05/19 04:07:47;;;;;;;13.18;9.25;;;7.70;99.90;;;;;;5063501;28;20127;-79
2021/05/19 04:10:13;;;;;;;14.77;10.50;;;7.70;99.90;;;;;;5056694;28;20056;-76
2021/05/19 04:12:39;;;;;;;14.65;9.70;;;7.70;99.90;;;;;;5068257;28;20047;-78
2021/05/19 04:15:05;;;;;;;15.82;10.68;;;7.70;99.90;;;;;;5077018;28;20060;-79
2021/05/19 04:17:31;;;;;;;12.57;9.93;;;7.70;99.90;;;;;;5079189;28;20035;-77
2021/05/19 04:19:57;;;;;;;15.05;10.57;;;7.70;99.90;;;;;;5058951;28;20510;-78
2021/05/19 04:22:23;;;;;;;16.58;10.80;;;7.70;99.90;;;;;;5084747;28;20039;-77
2021/05/19 04:24:48;;;;;;;20.17;10.80;;;7.70;99.90;;;;;;5079708;28;20043;-79
2021/05/19 04:27:14;;;;;;;13.07;10.18;;;7.80;99.90;;;;;;5059639;28;20472;-78
2021/05/19 04:29:40;;;;;;;14.55;10.57;;;7.90;99.90;;;;;;5085607;28;20040;-77
2021/05/19 04:32:06;;;;;;;19.15;11.07;;;8.00;99.90;;;;;;5063381;28;20395;-77
2021/05/19 04:34:36;;;;;;;16.83;11.50;;;8.10;99.90;;;;;;5059346;28;20029;-77
2021/05/19 04:37:02;;;;;;;18.90;11.20;;;8.20;99.90;;;;;;5082199;28;20055;-79
2021/05/19 04:39:28;;;;;;;9.00;4.85;;;8.30;99.90;;;;;;5066147;28;20032;-79
2021/05/19 04:41:53;;;;;;;15.25;10.85;;;8.70;99.90;;;;;;5078814;28;20115;-79
2021/05/19 04:44:19;;;;;;;14.50;10.55;;;8.90;99.90;;;;;;5085690;28;20028;-77
2021/05/19 04:46:45;;;;;;;16.33;11.30;;;8.90;99.90;;;;;;5084925;28;20117;-77
2021/05/19 04:49:11;;;;;;;16.10;11.25;;;8.80;99.90;;;;;;5080241;28;20099;-77
2021/05/19 04:51:36;;;;;;;16.40;11.23;;;8.70;99.90;;;;;;5064870;28;20043;-77
2021/05/19 04:54:03;;;;;;;17.35;11.98;;;8.70;99.90;;;;;;5062399;28;20037;-77
2021/05/19 04:56:29;;;;;;;18.13;11.77;;;8.70;99.90;;;;;;5066572;28;20127;-78
2021/05/19 04:58:55;;;;;;;17.73;12.10;;;8.60;99.90;;;;;;5056641;28;20131;-77
2021/05/19 05:01:21;;;;;;;17.45;12.00;;;8.60;99.90;;;;;;5064123;28;20123;-77
2021/05/19 05:03:46;;;;;;;23.23;12.25;;;8.70;99.90;;;;;;5084944;28;20398;-78
2021/05/19 05:06:12;;;;;;;17.90;12.23;;;8.60;99.90;;;;;;5094341;28;20036;-77
2021/05/19 05:08:38;;;;;;;17.80;12.45;;;8.70;99.90;;;;;;5083154;28;20041;-78
2021/05/19 05:11:04;;;;;;;22.90;13.30;;;8.70;99.90;;;;;;5073862;28;20050;-77
2021/05/19 05:13:30;;;;;;;20.67;12.60;;;8.80;99.90;;;;;;5092855;28;20078;-76
2021/05/19 05:15:55;;;;;;;17.40;12.98;;;8.90;99.90;;;;;;5074367;28;21397;-77
2021/05/19 05:18:21;;;;;;;17.95;13.23;;;8.90;99.90;;;;;;5074526;28;20123;-78
2021/05/19 05:20:47;;;;;;;19.13;12.93;;;9.00;99.90;;;;;;5074632;28;20040;-76
2021/05/19 05:23:13;;;;;;;20.25;12.52;;;9.00;99.90;;;;;;5084259;28;20033;-77
2021/05/19 05:25:39;;;;;;;21.90;13.15;;;9.10;99.90;;;;;;5071981;28;20043;-77
2021/05/19 05:28:04;;;;;;;17.27;13.18;;;9.20;99.90;;;;;;5085778;28;20067;-76
2021/05/19 05:30:30;;;;;;;18.83;13.63;;;9.20;99.90;;;;;;5049342;28;20047;-77
2021/05/19 05:32:56;;;;;;;23.02;13.63;;;9.30;99.90;;;;;;5062559;28;20526;-76
2021/05/19 05:35:22;;;;;;;19.60;14.00;;;9.50;99.90;;;;;;5062214;28;20052;-77
2021/05/19 05:37:48;;;;;;;22.58;14.35;;;9.50;99.90;;;;;;5080127;28;20060;-76
2021/05/19 05:40:14;;;;;;;21.05;13.55;;;9.50;99.90;;;;;;5066839;28;20087;-77
2021/05/19 05:42:40;;;;;;;22.67;13.85;;;9.60;99.90;;;;;;5084008;28;20043;-77
2021/05/19 05:45:06;;;;;;;21.08;14.35;;;9.70;99.90;;;;;;5077682;28;20047;-76
2021/05/19 05:47:34;;;;;;;25.05;14.32;;;9.70;99.90;;;;;;5073483;28;20040;-77
2021/05/19 05:50:02;;;;;;;20.42;14.63;;;9.90;99.90;;;;;;5062348;28;20049;-76
2021/05/19 05:52:28;;;;;;;20.52;13.88;;;10.00;99.90;;;;;;5081493;28;20151;-77
2021/05/19 05:54:54;;;;;;;20.02;14.45;;;10.10;99.90;;;;;;5066918;28;20028;-77
2021/05/19 05:57:21;;;;;;;21.00;14.38;;;10.20;99.90;;;;;;5061934;28;20040;-77
2021/05/19 05:59:46;;;;;;;19.90;13.93;;;10.30;99.90;;;;;;5063649;28;20039;-77
2021/05/19 06:02:12;;;;;;;21.33;14.27;;;10.40;99.90;;;;;;5072503;28;20047;-77
2021/05/19 06:04:38;;;;;;;22.27;14.70;;;10.30;99.90;;;;;;5077730;28;20078;-77
2021/05/19 06:07:04;;;;;;;21.20;13.80;;;10.50;99.90;;;;;;5068038;28;20443;-77
2021/05/19 06:09:30;;;;;;;18.52;13.02;;;10.50;99.90;;;;;;5058690;28;20048;-77
2021/05/19 06:11:55;;;;;;;22.42;14.88;;;10.50;99.90;;;;;;5077536;28;20063;-77
2021/05/19 06:14:21;;;;;;;20.60;13.98;;;10.60;99.90;;;;;;5084108;28;20128;-76
2021/05/19 06:16:47;;;;;;;21.60;14.60;;;10.70;99.90;;;;;;5078218;28;20472;-78
2021/05/19 06:19:13;;;;;;;25.92;14.27;;;10.60;99.90;;;;;;5073897;28;20085;-78
2021/05/19 06:21:40;;;;;;;19.95;13.88;;;10.60;99.90;;;;;;5077596;28;20064;-78
2021/05/19 06:24:07;;;;;;;18.83;14.07;;;10.60;99.90;;;;;;5068316;28;20075;-78
2021/05/19 06:26:33;;;;;;;20.77;14.57;;;10.60;99.90;;;;;;5068639;28;20475;-78
2021/05/19 06:29:00;;;;;;;24.73;14.75;;;10.60;99.90;;;;;;5049148;28;20101;-77
2021/05/19 06:31:26;;;;;;;19.70;14.40;;;10.60;99.90;;;;;;5070545;28;20403;-78
2021/05/19 06:33:51;;;;;;;17.83;14.10;;;10.70;99.90;;;;;;5065446;28;20056;-79
2021/05/19 06:36:17;;;;;;;20.10;15.05;;;10.70;99.90;;;;;;5082217;28;20059;-78
2021/05/19 06:38:43;;;;;;;20.05;14.73;;;10.80;99.90;;;;;;5069596;28;20510;-79
2021/05/19 06:41:09;;;;;;;22.52;15.68;;;11.00;99.90;;;;;;5071644;28;20031;-79
2021/05/19 06:43:34;;;;;;;18.70;12.15;;;11.10;99.90;;;;;;5069068;28;20111;-78
2021/05/19 06:46:00;;;;;;;22.35;14.60;;;11.30;99.90;;;;;;5072579;28;20048;-78
2021/05/19 06:48:26;;;;;;;21.05;14.32;;;11.40;99.90;;;;;;5082530;28;20051;-81
2021/05/19 06:50:52;;;;;;;22.60;13.95;;;11.40;99.90;;;;;;5062440;28;20049;-79
2021/05/19 06:53:17;;;;;;;22.42;14.88;;;11.40;99.90;;;;;;5065191;28;20076;-77
2021/05/19 06:55:48;;;;;;;24.85;14.07;;;11.60;99.90;;;;;;5073905;28;20059;-82
2021/05/19 06:58:16;;;;;;;25.65;15.40;;;11.70;99.90;;;;;;5077219;28;20056;-79
2021/05/19 07:00:41;;;;;;;19.23;14.40;;;11.90;99.90;;;;;;5037353;28;20503;-81
2021/05/19 07:03:07;;;;;;;20.88;14.13;;;12.10;99.90;;;;;;5061253;28;20044;-81
2021/05/19 07:05:33;;;;;;;21.00;15.27;;;12.40;99.90;;;;;;5055326;28;20040;-82
2021/05/19 07:07:59;;;;;;;21.08;15.18;;;12.60;99.90;;;;;;5054482;28;20110;-81
2021/05/19 07:10:24;;;;;;;18.27;14.43;;;12.70;99.90;;;;;;5080471;28;20074;-82
2021/05/19 07:12:51;;;;;;;21.70;14.85;;;12.70;99.90;;;;;;5070052;28;20040;-83
2021/05/19 07:15:18;;;;;;;28.33;15.70;;;12.70;99.90;;;;;;5077464;28;20098;-79
2021/05/19 07:17:44;;;;;;;21.38;15.43;;;12.70;99.90;;;;;;5060818;28;20045;-79
2021/05/19 07:20:11;;;;;;;26.15;16.58;;;12.80;99.90;;;;;;5054138;28;20051;-82
2021/05/19 07:22:41;;;;;;;23.60;16.45;;;12.90;99.90;;;;;;5074248;28;20121;-84
2021/05/19 07:25:08;;;;;;;23.90;17.17;;;12.90;99.90;;;;;;5062174;28;20051;-80
2021/05/19 07:27:34;;;;;;;28.55;17.67;;;12.80;99.90;;;;;;5072215;28;20039;-76
2021/05/19 07:30:01;;;;;;;26.45;17.92;;;12.90;99.90;;;;;;5091691;28;20032;-76
2021/05/19 07:32:27;;;;;;;29.25;17.83;;;12.90;99.90;;;;;;5073802;28;20062;-78
2021/05/19 07:34:53;;;;;;;30.75;18.45;;;12.80;99.90;;;;;;5067447;28;20130;-76
2021/05/19 07:37:19;;;;;;;25.75;16.55;;;13.00;99.90;;;;;;5079554;28;20048;-76
2021/05/19 07:39:45;;;;;;;24.92;17.63;;;13.00;99.90;;;;;;5074161;28;20055;-77
2021/05/19 07:42:16;;;;;;;27.38;18.33;;;13.10;99.90;;;;;;5080795;28;20055;-76
2021/05/19 07:44:43;;;;;;;25.17;17.15;;;13.10;99.90;;;;;;5092633;28;20115;-78
2021/05/19 07:47:09;;;;;;;27.30;16.90;;;13.20;99.90;;;;;;5068635;28;20044;-77
2021/05/19 07:49:35;;;;;;;26.67;16.65;;;13.40;99.90;;;;;;5063716;28;20128;-80
2021/05/19 07:52:01;;;;;;;24.63;16.15;;;13.60;99.90;;;;;;5058624;28;20115;-77
2021/05/19 07:54:29;;;;;;;23.27;16.63;;;13.80;99.90;;;;;;5063228;28;20044;-80
2021/05/19 07:57:08;;;;;;;23.45;16.58;;;14.00;99.90;;;;;;5079059;28;20039;-81
2021/05/19 07:59:37;;;;;;;22.85;16.27;;;14.10;99.90;;;;;;5072259;28;20044;-81
2021/05/19 08:02:07;;;;;;;25.52;17.23;;;14.30;99.90;;;;;;5078799;28;20043;-77
2021/05/19 08:04:35;;;;;;;23.85;17.83;;;14.20;99.90;;;;;;5079603;28;20120;-82
2021/05/19 08:07:02;;;;;;;21.08;16.88;;;14.10;99.90;;;;;;5068199;28;20094;-81
2021/05/19 08:09:28;;;;;;;24.85;17.55;;;14.10;99.90;;;;;;5078882;28;20485;-81
2021/05/19 08:11:55;;;;;;;26.63;19.00;;;14.20;99.90;;;;;;5060644;28;20028;-80
2021/05/19 08:14:21;;;;;;;41.22;16.40;;;14.10;99.90;;;;;;5078304;28;20047;-79
2021/05/19 08:16:47;;;;;;;26.60;19.00;;;14.10;99.90;;;;;;5079176;28;20491;-79
2021/05/19 08:19:13;;;;;;;26.48;18.35;;;14.20;99.90;;;;;;5089506;28;20054;-81
2021/05/19 08:21:40;;;;;;;22.90;18.23;;;14.20;99.90;;;;;;5070533;28;20086;-82
2021/05/19 08:24:06;;;;;;;24.77;17.98;;;14.20;99.90;;;;;;5067867;28;20064;-79
2021/05/19 08:26:32;;;;;;;25.42;17.58;;;14.20;99.90;;;;;;5066107;28;20032;-83
2021/05/19 08:28:57;;;;;;;28.08;19.17;;;14.30;99.90;;;;;;5088756;28;20046;-81
2021/05/19 08:31:23;;;;;;;31.38;18.73;;;14.50;99.90;;;;;;5082997;28;20032;-78
2021/05/19 08:33:50;;;;;;;28.75;17.38;;;14.40;99.90;;;;;;5049661;28;20155;-78
2021/05/19 08:36:16;;;;;;;23.13;17.30;;;14.20;99.90;;;;;;5080146;28;20511;-83
2021/05/19 08:38:45;;;;;;;23.42;18.05;;;14.00;99.90;;;;;;5064608;28;20052;-77
2021/05/19 08:41:12;;;;;;;20.95;16.35;;;14.10;99.90;;;;;;5070554;28;20036;-78
2021/05/19 08:43:37;;;;;;;23.50;17.50;;;14.20;99.90;;;;;;5059053;28;20052;-80
2021/05/19 08:46:08;;;;;;;22.35;17.23;;;14.40;99.90;;;;;;5064214;28;20377;-83
2021/05/19 08:48:34;;;;;;;21.55;15.32;;;14.60;99.90;;;;;;5083267;28;20400;-82
2021/05/19 08:51:01;;;;;;;17.20;13.20;;;14.60;99.90;;;;;;5082943;28;20036;-82
2021/05/19 08:53:27;;;;;;;19.77;13.85;;;14.60;99.90;;;;;;5080372;28;20099;-78
2021/05/19 08:55:54;;;;;;;20.13;14.48;;;14.80;99.90;;;;;;5071955;28;20052;-81
2021/05/19 08:58:20;;;;;;;20.95;13.88;;;15.20;99.90;;;;;;5047327;28;20071;-77
2021/05/19 09:00:46;;;;;;;17.63;13.70;;;15.10;99.90;;;;;;5065163;28;20601;-80
2021/05/19 09:03:15;;;;;;;15.23;10.93;;;15.30;99.90;;;;;;5095471;28;20034;-80
2021/05/19 09:05:44;;;;;;;16.33;11.38;;;15.30;99.90;;;;;;5076891;28;20048;-79
2021/05/19 09:08:16;;;;;;;16.60;10.75;;;15.50;99.90;;;;;;5076389;28;20043;-81
2021/05/19 09:10:57;;;;;;;13.23;10.90;;;15.70;99.90;;;;;;5086131;28;20456;-78
2021/05/19 09:13:49;;;;;;;13.93;11.23;;;15.60;99.90;;;;;;5076662;28;20426;-79
2021/05/19 09:16:31;;;;;;;15.55;11.60;;;15.70;99.90;;;;;;5072900;28;20044;-78
2021/05/19 09:18:58;;;;;;;16.73;11.43;;;15.90;99.90;;;;;;5074352;28;20052;-79
2021/05/19 09:21:41;;;;;;;17.00;12.05;;;16.00;99.90;;;;;;5064030;28;20048;-80
2021/05/19 09:24:30;;;;;;;15.32;12.05;;;16.00;99.90;;;;;;5082677;28;20491;-81
2021/05/19 09:26:58;;;;;;;15.75;10.43;;;16.10;99.90;;;;;;5061128;28;20044;-79
2021/05/19 09:29:35;;;;;;;17.52;12.13;;;15.60;99.90;;;;;;5078053;28;20097;-79
2021/05/19 09:32:06;;;;;;;15.45;10.88;;;15.80;99.90;;;;;;5077793;28;20047;-80
2021/05/19 09:34:37;;;;;;;24.58;12.38;;;15.60;99.90;;;;;;5060989;28;20518;-83
2021/05/19 09:37:15;;;;;;;16.58;11.18;;;15.60;99.90;;;;;;5071402;28;20043;-79
2021/05/19 09:40:05;;;;;;;14.60;11.48;;;15.60;99.90;;;;;;5076353;28;20039;-79
2021/05/19 09:42:37;;;;;;;16.90;13.00;;;15.40;99.90;;;;;;5069461;28;20519;-78
2021/05/19 09:45:25;;;;;;;16.73;12.57;;;15.30;99.90;;;;;;5060746;28;20046;-78
2021/05/19 09:47:53;;;;;;;7.45;5.13;;;15.10;99.90;;;;;;5081020;28;20032;-79
2021/05/19 09:50:45;;;;;;;7.70;4.60;;;14.90;99.90;;;;;;5060470;28;20048;-79
2021/05/19 09:53:16;;;;;;;3.88;3.00;;;14.50;99.90;;;;;;4976017;28;20054;-77
2021/05/19 09:55:48;;;;;;;3.63;2.22;;;14.40;99.90;;;;;;4978806;28;20042;-79
2021/05/19 09:58:29;;;;;;;3.75;1.45;;;14.40;99.90;;;;;;4985132;28;20050;-78
2021/05/19 10:00:56;;;;;;;2.15;1.25;;;14.60;99.90;;;;;;4988306;28;20054;-78
2021/05/19 10:03:22;;;;;;;1.70;1.48;;;14.50;99.90;;;;;;4976138;28;20078;-78
2021/05/19 10:05:54;;;;;;;8.05;4.43;;;14.50;99.90;;;;;;4986413;28;20069;-78
2021/05/19 10:08:20;;;;;;;8.30;5.90;;;14.50;99.90;;;;;;4992470;28;20468;-77
2021/05/19 10:10:45;;;;;;;4.38;3.97;;;14.50;99.90;;;;;;4984964;28;20042;-79
2021/05/19 10:13:13;;;;;;;7.45;5.30;;;14.40;99.90;;;;;;4987898;28;20042;-79
2021/05/19 10:15:40;;;;;;;12.38;8.75;;;14.30;99.90;;;;;;4982743;28;20509;-79
2021/05/19 10:18:09;;;;;;;14.18;9.93;;;14.40;99.90;;;;;;4972721;28;20111;-78
2021/05/19 10:20:38;;;;;;;22.70;10.73;;;14.30;99.90;;;;;;4983019;28;20532;-81
2021/05/19 10:23:06;;;;;;;18.60;11.20;;;14.30;99.90;;;;;;4975624;28;20061;-80
2021/05/19 10:25:42;;;;;;;11.60;9.07;;;14.40;99.90;;;;;;4990297;28;20046;-79
2021/05/19 10:28:10;;;;;;;9.30;7.00;;;14.60;99.90;;;;;;4986999;28;20058;-79
2021/05/19 10:30:38;;;;;;;8.50;4.32;;;14.80;99.90;;;;;;5041023;28;20052;-80
2021/05/19 10:33:05;;;;;;;5.53;3.00;;;14.80;99.90;;;;;;5054649;28;20126;-77
2021/05/19 10:35:43;;;;;;;3.58;2.03;;;15.10;99.90;;;;;;5056912;28;20123;-79
2021/05/19 10:38:20;;;;;;;3.95;2.60;;;15.50;99.90;;;;;;5071538;28;20052;-78
2021/05/19 10:40:56;;;;;;;5.18;1.95;;;15.70;99.90;;;;;;5085627;28;20064;-79
2021/05/19 10:43:51;;;;;;;2.75;1.50;;;15.70;99.90;;;;;;5092145;28;20055;-80
2021/05/19 10:46:51;;;;;;;2.13;1.63;;;16.00;99.60;;;;;;5063910;28;20052;-79
2021/05/19 10:49:18;;;;;;;2.97;2.08;;;16.30;98.50;;;;;;5072534;28;20055;-78
2021/05/19 10:58:51;;;;;;;2.40;1.55;;;17.70;98.90;;;;;;5086171;28;20424;-79
2021/05/19 11:01:37;;;;;;;3.28;2.00;;;18.40;99.90;;;;;;5096911;28;20475;-78
2021/05/19 11:04:14;;;;;;;6.20;3.28;;;18.20;97.40;;;;;;5082073;28;20506;-77
2021/05/19 11:07:01;;;;;;;4.07;2.85;;;17.90;99.90;;;;;;5066875;28;20101;-78
2021/05/19 11:09:40;;;;;;;4.47;3.13;;;17.20;99.90;;;;;;5087435;28;20047;-80
2021/05/19 11:12:22;;;;;;;4.68;3.17;;;16.60;99.90;;;;;;5067337;28;20059;-78
2021/05/19 11:17:53;;;;;;;10.63;4.93;;;15.70;99.90;;;;;;5077881;28;20037;-78
2021/05/19 11:20:13;;;;;;;12.88;4.43;;;15.10;99.90;;;;;;5075553;28;20494;-79
2021/05/19 11:22:40;;;;;;;12.15;4.15;;;14.80;99.90;;;;;;5063336;28;20052;-81
2021/05/19 11:25:06;;;;;;;6.63;3.85;;;14.40;99.90;;;;;;5083152;28;20036;-78
2021/05/19 11:27:35;;;;;;;7.30;4.25;;;14.10;99.90;;;;;;5070493;28;20052;-78
2021/05/19 11:30:04;;;;;;;8.63;3.92;;;13.70;99.90;;;;;;5063433;28;20171;-80
2021/05/19 11:32:31;;;;;;;8.45;4.53;;;13.40;99.90;;;;;;5079390;28;20066;-79
2021/05/19 11:35:15;;;;;;;11.50;4.70;;;13.20;99.90;;;;;;5052682;28;20044;-79
2021/05/19 11:37:53;;;;;;;13.25;4.50;;;13.10;99.90;;;;;;5074807;28;20124;-81
2021/05/19 11:40:19;;;;;;;7.85;3.70;;;12.90;99.90;;;;;;5079555;28;20052;-79
2021/05/19 11:42:56;;;;;;;9.27;4.60;;;12.90;99.90;;;;;;5043080;28;20053;-79
2021/05/19 11:45:26;;;;;;;7.18;4.65;;;12.70;99.90;;;;;;5062196;28;20032;-80
2021/05/19 11:47:52;;;;;;;6.50;4.60;;;12.70;99.90;;;;;;5070498;28;20077;-80
2021/05/19 11:50:23;;;;;;;5.95;4.43;;;12.70;99.90;;;;;;5091567;28;20176;-80
2021/05/19 11:52:59;;;;;;;6.50;4.85;;;12.60;99.90;;;;;;5040381;28;20113;-80
2021/05/19 11:55:35;;;;;;;7.03;4.43;;;12.50;99.90;;;;;;5071781;28;20039;-80
2021/05/19 11:58:07;;;;;;;5.55;4.28;;;12.50;99.90;;;;;;5054655;28;20064;-80
2021/05/19 12:00:38;;;;;;;7.25;4.78;;;12.50;99.90;;;;;;5074008;28;20040;-80
2021/05/19 12:03:06;;;;;;;7.95;4.55;;;12.50;99.90;;;;;;5069608;28;20066;-80
2021/05/19 12:05:43;;;;;;;8.73;4.45;;;12.40;99.90;;;;;;5073688;28;20040;-80
2021/05/19 12:08:09;;;;;;;8.93;5.00;;;12.30;99.90;;;;;;5073985;28;20063;-80
2021/05/19 12:10:35;;;;;;;11.13;5.20;;;12.30;99.90;;;;;;5075738;28;20033;-80
2021/05/19 12:13:03;;;;;;;8.43;4.65;;;12.40;99.90;;;;;;5071871;28;20041;-80
2021/05/19 12:15:31;;;;;;;10.15;5.30;;;12.40;99.90;;;;;;5073112;28;20036;-80
2021/05/19 12:18:03;;;;;;;7.65;5.00;;;12.40;99.90;;;;;;5056779;28;20565;-80
2021/05/19 12:20:29;;;;;;;9.35;5.20;;;12.50;99.90;;;;;;5071502;28;20068;-80
2021/05/19 12:22:58;;;;;;;7.05;4.80;;;12.50;99.90;;;;;;5071660;28;20078;-80
2021/05/19 12:25:26;;;;;;;7.72;4.30;;;12.50;99.90;;;;;;5079077;28;20051;-81
2021/05/19 12:28:06;;;;;;;6.30;4.90;;;12.50;99.90;;;;;;5089949;28;20055;-80
2021/05/19 12:30:59;;;;;;;5.93;4.68;;;12.60;99.90;;;;;;5053582;28;20477;-80
2021/05/19 12:33:36;;;;;;;8.75;5.28;;;12.60;99.90;;;;;;5075761;28;20086;-81
2021/05/19 12:36:02;;;;;;;11.30;5.57;;;12.50;99.90;;;;;;5070095;28;20056;-80
2021/05/19 12:38:43;;;;;;;12.13;5.78;;;12.50;99.90;;;;;;5084624;28;20396;-79
2021/05/19 12:41:09;;;;;;;9.15;6.07;;;12.50;99.90;;;;;;5056468;28;20045;-80
2021/05/19 12:43:38;;;;;;;7.28;4.88;;;12.40;99.90;;;;;;5043343;28;20086;-81
2021/05/19 12:46:14;;;;;;;8.00;4.78;;;12.40;99.90;;;;;;5062950;28;20715;-81
2021/05/19 12:48:40;;;;;;;7.40;4.50;;;12.40;99.90;;;;;;5078971;28;20117;-80
2021/05/19 12:51:07;;;;;;;5.28;3.85;;;12.30;99.90;;;;;;5069602;28;20032;-81
2021/05/19 12:53:45;;;;;;;6.00;3.53;;;12.40;99.90;;;;;;5080526;28;20081;-80
2021/05/19 12:56:12;;;;;;;3.55;3.20;;;12.40;99.90;;;;;;5056349;28;20336;-81